Time;durP1;ratioP1;P1;durP2;ratioP2;P2;SDS_P1;SDS_P2;PMS_P1;PMS_P2;Temp;Humidity;BMP_temperature;BMP_pressure;BME280_temperature;BME280_humidity;BME280_pressure;Samples;Min_cycle;Max_cycle;Signal;HPM_P1;HPM_P2
2023/10/05 00:01:02;;;;;;;10.13;2.00;;;;;;;;;;5086335;28;20044;-84
2023/10/05 00:03:32;;;;;;;12.00;2.45;;;;;;;;;;5093161;28;20056;-83
2023/10/05 00:06:13;;;;;;;10.82;2.28;;;;;;;;;;5092766;28;20044;-84
2023/10/05 00:08:40;;;;;;;9.33;1.90;;;;;;;;;;5077133;28;20051;-83
2023/10/05 00:11:08;;;;;;;11.40;2.40;;;;;;;;;;5093342;28;20317;-82
2023/10/05 00:13:35;;;;;;;10.10;1.67;;;;;;;;;;5091149;28;20487;-83
2023/10/05 00:16:05;;;;;;;11.80;2.65;;;;;;;;;;5092688;28;20044;-84
2023/10/05 00:18:32;;;;;;;14.75;2.10;;;;;;;;;;5092506;28;20047;-83
2023/10/05 00:21:00;;;;;;;12.68;2.13;;;;;;;;;;5090074;28;20048;-83
2023/10/05 00:23:27;;;;;;;10.77;2.20;;;;;;;;;;5091651;28;20049;-84
2023/10/05 00:25:55;;;;;;;14.02;2.78;;;;;;;;;;5089777;28;20121;-84
2023/10/05 00:28:24;;;;;;;14.30;2.60;;;;;;;;;;5092154;28;20055;-84
2023/10/05 00:30:52;;;;;;;12.40;2.35;;;;;;;;;;5091741;28;20090;-83
2023/10/05 00:33:18;;;;;;;12.13;2.80;;;;;;;;;;5090650;28;20076;-84
2023/10/05 00:35:44;;;;;;;12.70;2.40;;;;;;;;;;5090459;28;20775;-84
2023/10/05 00:38:16;;;;;;;9.32;1.95;;;;;;;;;;5089890;28;20045;-84
2023/10/05 00:45:46;;;;;;;14.43;2.30;;;;;;;;;;5089279;28;20461;-84
2023/10/05 00:48:13;;;;;;;9.05;2.53;;;;;;;;;;5087982;28;20046;-84
2023/10/05 00:50:40;;;;;;;9.65;2.50;;;;;;;;;;5087920;28;20040;-84
2023/10/05 00:53:08;;;;;;;11.98;2.55;;;;;;;;;;5089701;28;20036;-84
2023/10/05 00:55:36;;;;;;;10.93;2.63;;;;;;;;;;5087034;28;20068;-84
2023/10/05 00:58:10;;;;;;;10.45;2.25;;;;;;;;;;5086721;28;20037;-82
2023/10/05 01:00:48;;;;;;;12.07;2.38;;;;;;;;;;5083416;28;20045;-83
2023/10/05 01:03:23;;;;;;;15.32;2.58;;;;;;;;;;5072426;28;20052;-84
2023/10/05 01:06:05;;;;;;;12.38;2.67;;;;;;;;;;5086490;28;20051;-84
2023/10/05 01:08:39;;;;;;;12.70;2.60;;;;;;;;;;5089472;28;20052;-83
2023/10/05 01:11:07;;;;;;;13.50;2.40;;;;;;;;;;5089138;28;20070;-84
2023/10/05 01:13:35;;;;;;;11.13;2.10;;;;;;;;;;5087800;28;20049;-86
2023/10/05 01:16:15;;;;;;;10.63;2.25;;;;;;;;;;5065865;28;20049;-84
2023/10/05 01:18:43;;;;;;;12.18;2.67;;;;;;;;;;5089968;28;20052;-84
2023/10/05 01:21:10;;;;;;;11.80;2.38;;;;;;;;;;5089472;28;20048;-84
2023/10/05 01:23:41;;;;;;;11.52;2.42;;;;;;;;;;5087355;28;20054;-84
2023/10/05 01:26:11;;;;;;;13.00;2.50;;;;;;;;;;5088732;28;20037;-83
2023/10/05 01:28:39;;;;;;;10.10;2.53;;;;;;;;;;5088864;28;20053;-85
2023/10/05 01:31:09;;;;;;;10.13;2.72;;;;;;;;;;5087837;28;20069;-84
2023/10/05 01:33:35;;;;;;;10.63;2.45;;;;;;;;;;5088759;28;20040;-83
2023/10/05 01:36:03;;;;;;;11.23;2.67;;;;;;;;;;5087597;28;20049;-84
2023/10/05 01:38:30;;;;;;;11.30;2.58;;;;;;;;;;5088871;28;20087;-84
2023/10/05 01:40:58;;;;;;;12.18;3.00;;;;;;;;;;5088964;28;20040;-83
2023/10/05 01:43:29;;;;;;;13.02;3.30;;;;;;;;;;5089542;28;20056;-85
2023/10/05 01:45:56;;;;;;;14.55;3.53;;;;;;;;;;5084408;28;20053;-86
2023/10/05 01:48:26;;;;;;;9.95;3.00;;;;;;;;;;5083510;28;20044;-84
2023/10/05 01:50:53;;;;;;;14.55;3.85;;;;;;;;;;5089226;28;20445;-84
2023/10/05 01:53:19;;;;;;;16.05;6.35;;;;;;;;;;5073773;28;20139;-85
2023/10/05 01:55:47;;;;;;;16.10;5.10;;;;;;;;;;5086437;28;20044;-84
2023/10/05 01:58:22;;;;;;;17.35;5.32;;;;;;;;;;5091080;28;20074;-84
2023/10/05 02:00:48;;;;;;;16.20;4.70;;;;;;;;;;5090202;28;20051;-84
2023/10/05 02:03:17;;;;;;;11.25;4.20;;;;;;;;;;5089893;28;20091;-83
2023/10/05 02:05:44;;;;;;;14.35;3.00;;;;;;;;;;5088948;28;20053;-83
2023/10/05 02:08:14;;;;;;;11.88;3.40;;;;;;;;;;5068373;28;20048;-83
2023/10/05 02:10:40;;;;;;;11.43;3.28;;;;;;;;;;5088114;28;20096;-83
2023/10/05 02:13:12;;;;;;;11.10;2.85;;;;;;;;;;5089094;28;20037;-84
2023/10/05 02:15:39;;;;;;;12.40;3.70;;;;;;;;;;5085259;28;20480;-83
2023/10/05 02:18:39;;;;;;;13.10;4.18;;;;;;;;;;5086141;28;20040;-84
2023/10/05 02:23:37;;;;;;;20.83;5.70;;;;;;;;;;5088441;28;20079;-84
2023/10/05 02:28:48;;;;;;;17.63;5.25;;;;;;;;;;5088498;28;20048;-83
2023/10/05 02:31:14;;;;;;;16.10;5.35;;;;;;;;;;5087860;28;20044;-84
2023/10/05 02:33:43;;;;;;;18.70;5.30;;;;;;;;;;5087138;28;20060;-84
2023/10/05 02:38:49;;;;;;;17.85;4.20;;;;;;;;;;5088651;28;20048;-84
2023/10/05 02:41:17;;;;;;;12.85;3.90;;;;;;;;;;5088543;28;20095;-84
2023/10/05 02:43:51;;;;;;;14.60;5.13;;;;;;;;;;5087949;28;20060;-85
2023/10/05 02:46:20;;;;;;;14.65;4.10;;;;;;;;;;5088526;28;20059;-83
2023/10/05 02:48:46;;;;;;;15.02;4.43;;;;;;;;;;5088790;28;20055;-84
2023/10/05 02:51:13;;;;;;;11.40;3.97;;;;;;;;;;5089812;28;20060;-83
2023/10/05 02:53:41;;;;;;;10.45;3.42;;;;;;;;;;5087891;28;20049;-83
2023/10/05 02:56:20;;;;;;;9.48;3.28;;;;;;;;;;5083216;28;20048;-83
2023/10/05 02:58:47;;;;;;;12.88;3.33;;;;;;;;;;5077764;28;20112;-83
2023/10/05 03:01:15;;;;;;;15.07;4.00;;;;;;;;;;5086128;28;20076;-85
2023/10/05 03:03:43;;;;;;;15.70;4.32;;;;;;;;;;5082442;28;20045;-84
2023/10/05 03:06:10;;;;;;;14.32;4.38;;;;;;;;;;5082191;28;20513;-83
2023/10/05 03:08:36;;;;;;;14.10;3.70;;;;;;;;;;5086474;28;20056;-84
2023/10/05 03:11:04;;;;;;;12.60;4.07;;;;;;;;;;5087289;28;20512;-84
2023/10/05 03:13:30;;;;;;;13.57;3.00;;;;;;;;;;5087314;28;20040;-83
2023/10/05 03:15:58;;;;;;;14.98;3.78;;;;;;;;;;5087915;28;20044;-84
2023/10/05 03:18:25;;;;;;;17.73;3.83;;;;;;;;;;5086827;28;20037;-84
2023/10/05 03:20:51;;;;;;;12.30;3.08;;;;;;;;;;5083953;28;20100;-85
2023/10/05 03:23:17;;;;;;;12.15;3.00;;;;;;;;;;5084836;28;20056;-83
2023/10/05 03:25:47;;;;;;;10.10;3.05;;;;;;;;;;5087245;28;20469;-84
2023/10/05 03:28:13;;;;;;;14.90;3.15;;;;;;;;;;5087449;28;20048;-85
2023/10/05 03:30:39;;;;;;;10.07;3.22;;;;;;;;;;5091318;28;20045;-84
2023/10/05 03:33:05;;;;;;;13.23;3.15;;;;;;;;;;5090010;28;20040;-86
2023/10/05 03:35:32;;;;;;;12.38;3.30;;;;;;;;;;5087654;28;20044;-84
2023/10/05 03:37:59;;;;;;;13.45;3.33;;;;;;;;;;5088634;28;20040;-83
2023/10/05 03:40:27;;;;;;;15.23;3.15;;;;;;;;;;5091598;28;20402;-83
2023/10/05 03:42:57;;;;;;;8.85;2.65;;;;;;;;;;5090608;28;20090;-83
2023/10/05 03:45:23;;;;;;;14.57;2.92;;;;;;;;;;5089992;28;20040;-84
2023/10/05 03:47:49;;;;;;;13.02;3.00;;;;;;;;;;5091278;28;20044;-83
2023/10/05 03:50:21;;;;;;;10.38;2.55;;;;;;;;;;5088254;28;20056;-84
2023/10/05 03:52:47;;;;;;;13.95;3.42;;;;;;;;;;5087366;28;20052;-84
2023/10/05 03:55:19;;;;;;;16.38;3.55;;;;;;;;;;5089264;28;20245;-85
2023/10/05 03:57:45;;;;;;;;;;;;;;;;;;5084756;28;20055;-84
2023/10/05 04:02:47;;;;;;;11.85;3.00;;;;;;;;;;5088913;28;20283;-84
2023/10/05 04:05:17;;;;;;;10.70;3.05;;;;;;;;;;5087033;28;20040;-85
2023/10/05 04:07:44;;;;;;;11.70;2.90;;;;;;;;;;5088657;28;20161;-84
2023/10/05 04:10:15;;;;;;;12.35;2.90;;;;;;;;;;5088458;28;20075;-84
2023/10/05 04:12:41;;;;;;;;;;;;;;;;;;5091819;28;20049;-84
2023/10/05 04:15:11;;;;;;;12.52;2.80;;;;;;;;;;5091593;28;19920;-84
2023/10/05 04:17:38;;;;;;;11.95;3.15;;;;;;;;;;5090156;28;20049;-83
2023/10/05 04:20:17;;;;;;;10.25;2.63;;;;;;;;;;5086133;28;20391;-84
2023/10/05 04:22:43;;;;;;;13.80;2.92;;;;;;;;;;5086322;28;20048;-83
2023/10/05 04:25:09;;;;;;;14.05;2.80;;;;;;;;;;5088750;28;20078;-85
2023/10/05 04:27:35;;;;;;;10.20;2.55;;;;;;;;;;5089951;28;20040;-84
2023/10/05 04:30:03;;;;;;;11.90;2.90;;;;;;;;;;5088292;28;20040;-85
2023/10/05 04:32:29;;;;;;;14.10;3.20;;;;;;;;;;5089499;28;20049;-87
2023/10/05 04:34:56;;;;;;;15.32;3.50;;;;;;;;;;5090269;28;20055;-83
2023/10/05 04:37:22;;;;;;;11.15;2.70;;;;;;;;;;5089147;28;20398;-84
2023/10/05 04:39:48;;;;;;;11.20;3.17;;;;;;;;;;5088183;28;20048;-87
2023/10/05 04:42:15;;;;;;;13.80;3.05;;;;;;;;;;5080517;28;20044;-83
2023/10/05 04:44:42;;;;;;;15.70;3.03;;;;;;;;;;5089580;28;20036;-84
2023/10/05 04:47:11;;;;;;;14.13;2.80;;;;;;;;;;5088519;28;20052;-84
2023/10/05 04:49:38;;;;;;;11.73;3.05;;;;;;;;;;5085883;28;20060;-84
2023/10/05 04:52:06;;;;;;;16.60;3.22;;;;;;;;;;5088167;28;20587;-83
2023/10/05 04:54:38;;;;;;;13.80;3.15;;;;;;;;;;5087784;28;20040;-85
2023/10/05 04:57:07;;;;;;;12.48;2.83;;;;;;;;;;5082806;28;20036;-83
2023/10/05 05:02:18;;;;;;;13.43;2.70;;;;;;;;;;5087050;28;20047;-84
2023/10/05 05:07:19;;;;;;;15.70;2.92;;;;;;;;;;5086376;28;20059;-84
2023/10/05 05:09:45;;;;;;;12.63;2.75;;;;;;;;;;5087744;28;20053;-84
2023/10/05 05:12:24;;;;;;;11.38;3.05;;;;;;;;;;5081957;28;20064;-84
2023/10/05 05:14:52;;;;;;;13.13;3.17;;;;;;;;;;5088967;28;20054;-84
2023/10/05 05:17:19;;;;;;;11.00;2.90;;;;;;;;;;5087570;28;20053;-83
2023/10/05 05:19:46;;;;;;;10.13;2.80;;;;;;;;;;5088820;28;20040;-87
2023/10/05 05:22:13;;;;;;;13.68;2.85;;;;;;;;;;5071405;28;20072;-84
2023/10/05 05:24:39;;;;;;;14.70;3.58;;;;;;;;;;5080140;28;20055;-84
2023/10/05 05:27:24;;;;;;;13.02;2.80;;;;;;;;;;5088028;28;20133;-83
2023/10/05 05:29:53;;;;;;;15.30;3.13;;;;;;;;;;5082199;28;20033;-84
2023/10/05 05:32:22;;;;;;;13.80;3.15;;;;;;;;;;5077387;28;20063;-84
2023/10/05 05:34:50;;;;;;;10.45;2.83;;;;;;;;;;5086852;28;20048;-83
2023/10/05 05:37:28;;;;;;;12.27;2.70;;;;;;;;;;5082767;28;20049;-84
2023/10/05 05:40:18;;;;;;;11.90;2.88;;;;;;;;;;5077235;28;20048;-84
2023/10/05 05:42:46;;;;;;;14.50;2.90;;;;;;;;;;5081721;28;20068;-84
2023/10/05 05:45:16;;;;;;;13.43;2.80;;;;;;;;;;5084024;28;20045;-85
2023/10/05 05:47:48;;;;;;;15.10;3.03;;;;;;;;;;5082651;28;20136;-84
2023/10/05 05:50:17;;;;;;;13.15;3.10;;;;;;;;;;5072674;28;20080;-83
2023/10/05 05:52:47;;;;;;;11.88;2.75;;;;;;;;;;5084561;28;20047;-84
2023/10/05 05:55:13;;;;;;;14.57;3.40;;;;;;;;;;5084660;28;20055;-84
2023/10/05 05:57:40;;;;;;;12.15;3.30;;;;;;;;;;5074621;28;20052;-83
2023/10/05 06:00:15;;;;;;;15.45;3.33;;;;;;;;;;5081898;28;20048;-85
2023/10/05 06:02:41;;;;;;;13.90;3.10;;;;;;;;;;5085646;28;20062;-84
2023/10/05 06:05:11;;;;;;;12.50;3.13;;;;;;;;;;5084038;28;20040;-83
2023/10/05 06:07:38;;;;;;;18.55;3.03;;;;;;;;;;5087459;28;20094;-83
2023/10/05 06:10:11;;;;;;;11.35;3.30;;;;;;;;;;5088084;28;20048;-85
2023/10/05 06:12:38;;;;;;;17.35;4.25;;;;;;;;;;5081124;28;20044;-84
2023/10/05 06:15:04;;;;;;;14.52;3.45;;;;;;;;;;5080165;28;20068;-84
2023/10/05 06:17:30;;;;;;;12.40;2.90;;;;;;;;;;5078849;28;20143;-82
2023/10/05 06:19:56;;;;;;;15.60;3.30;;;;;;;;;;5086462;28;20040;-84
2023/10/05 06:22:22;;;;;;;13.32;3.03;;;;;;;;;;5079074;28;20044;-83
2023/10/05 06:24:48;;;;;;;21.50;3.30;;;;;;;;;;5082079;28;20093;-85
2023/10/05 06:27:14;;;;;;;13.05;3.08;;;;;;;;;;5075822;28;20512;-84
2023/10/05 06:29:41;;;;;;;14.85;3.35;;;;;;;;;;5080280;28;20072;-84
2023/10/05 06:32:08;;;;;;;13.02;3.17;;;;;;;;;;5072112;28;20049;-84
2023/10/05 06:34:37;;;;;;;14.90;3.10;;;;;;;;;;5085237;28;20117;-85
2023/10/05 06:37:03;;;;;;;17.85;3.90;;;;;;;;;;5077924;28;20048;-84
2023/10/05 06:39:30;;;;;;;11.55;3.17;;;;;;;;;;5081899;28;20971;-84
2023/10/05 06:41:59;;;;;;;11.45;2.85;;;;;;;;;;5084831;28;20554;-84
2023/10/05 06:44:26;;;;;;;14.75;3.05;;;;;;;;;;5078428;28;20127;-84
2023/10/05 06:46:55;;;;;;;12.70;3.35;;;;;;;;;;5079985;28;20396;-84
2023/10/05 06:49:22;;;;;;;13.18;2.88;;;;;;;;;;5083062;28;20084;-84
2023/10/05 06:51:48;;;;;;;15.32;2.97;;;;;;;;;;5080655;28;20491;-85
2023/10/05 06:54:14;;;;;;;20.40;3.28;;;;;;;;;;5078393;28;20063;-83
2023/10/05 06:56:41;;;;;;;12.18;3.13;;;;;;;;;;5082457;28;20048;-84
2023/10/05 06:59:07;;;;;;;19.55;3.05;;;;;;;;;;5084697;28;20117;-82
2023/10/05 07:01:37;;;;;;;11.30;2.92;;;;;;;;;;5083152;28;20047;-83
2023/10/05 07:04:07;;;;;;;15.20;3.35;;;;;;;;;;5082428;28;20045;-83
2023/10/05 07:06:34;;;;;;;14.02;2.75;;;;;;;;;;5085963;28;20051;-84
2023/10/05 07:09:00;;;;;;;15.20;2.95;;;;;;;;;;5086181;28;20051;-83
2023/10/05 07:11:26;;;;;;;11.10;3.28;;;;;;;;;;5080432;28;20097;-87
2023/10/05 07:13:52;;;;;;;16.15;3.10;;;;;;;;;;5083229;28;20398;-85
2023/10/05 07:16:19;;;;;;;16.50;3.10;;;;;;;;;;5082042;28;20056;-85
2023/10/05 07:18:45;;;;;;;12.18;2.95;;;;;;;;;;5081042;28;20040;-88
2023/10/05 07:21:11;;;;;;;13.02;2.95;;;;;;;;;;5077210;28;20091;-86
2023/10/05 07:23:38;;;;;;;17.80;3.35;;;;;;;;;;5082656;28;20117;-86
2023/10/05 07:26:05;;;;;;;14.98;3.22;;;;;;;;;;5077683;28;20128;-85
2023/10/05 07:31:12;;;;;;;15.15;3.17;;;;;;;;;;5135410;22;20053;-85
2023/10/05 07:33:38;;;;;;;15.05;3.15;;;;;;;;;;5060796;28;20483;-85
2023/10/05 07:36:05;;;;;;;13.30;3.08;;;;;;;;;;5060423;28;20046;-86
2023/10/05 07:38:32;;;;;;;14.25;3.15;;;;;;;;;;5063552;28;20043;-85
2023/10/05 07:40:58;;;;;;;16.13;3.15;;;;;;;;;;5060629;28;20045;-85
2023/10/05 07:43:27;;;;;;;13.25;3.40;;;;;;;;;;5043113;28;20081;-85
2023/10/05 07:45:54;;;;;;;10.98;2.97;;;;;;;;;;5043903;28;20476;-84
2023/10/05 07:48:20;;;;;;;14.02;3.30;;;;;;;;;;5031581;28;20056;-85
2023/10/05 07:50:49;;;;;;;14.48;3.28;;;;;;;;;;5061682;28;20510;-86
2023/10/05 07:53:16;;;;;;;15.60;3.28;;;;;;;;;;5061532;28;20052;-84
2023/10/05 07:55:42;;;;;;;15.75;3.30;;;;;;;;;;5062684;28;20044;-86
2023/10/05 07:58:08;;;;;;;15.23;4.43;;;;;;;;;;5062923;28;20038;-85
2023/10/05 08:00:34;;;;;;;20.90;8.20;;;;;;;;;;5063746;28;20045;-85
2023/10/05 08:03:00;;;;;;;17.98;5.22;;;;;;;;;;5047108;28;20045;-84
2023/10/05 08:05:26;;;;;;;13.45;3.60;;;;;;;;;;5061182;28;20076;-84
2023/10/05 08:07:54;;;;;;;14.60;3.53;;;;;;;;;;5055079;28;20495;-85
2023/10/05 08:10:21;;;;;;;13.88;3.67;;;;;;;;;;5060572;28;20102;-84
2023/10/05 08:12:50;;;;;;;14.73;3.17;;;;;;;;;;5057224;28;20048;-84
2023/10/05 08:15:18;;;;;;;13.23;3.40;;;;;;;;;;5052871;28;20049;-85
2023/10/05 08:17:45;;;;;;;13.50;3.13;;;;;;;;;;5065647;28;20103;-84
2023/10/05 08:20:11;;;;;;;13.70;3.35;;;;;;;;;;5049819;28;20048;-84
2023/10/05 08:22:38;;;;;;;12.32;3.72;;;;;;;;;;5068348;28;20111;-84
2023/10/05 08:25:11;;;;;;;12.30;3.08;;;;;;;;;;5068102;28;20052;-83
2023/10/05 08:27:38;;;;;;;15.80;3.25;;;;;;;;;;5062387;28;20045;-85
2023/10/05 08:30:08;;;;;;;17.45;3.83;;;;;;;;;;5058436;28;20041;-85
2023/10/05 08:32:36;;;;;;;13.00;2.95;;;;;;;;;;5062583;28;20064;-85
2023/10/05 08:35:07;;;;;;;18.63;3.55;;;;;;;;;;5062305;28;20124;-85
2023/10/05 08:37:42;;;;;;;13.88;3.17;;;;;;;;;;5062451;28;20112;-85
2023/10/05 08:40:28;;;;;;;16.17;3.45;;;;;;;;;;5056786;28;20049;-85
2023/10/05 08:42:56;;;;;;;14.57;3.22;;;;;;;;;;5045414;28;20045;-85
2023/10/05 08:45:23;;;;;;;15.52;3.22;;;;;;;;;;5043754;28;20491;-84
2023/10/05 08:47:55;;;;;;;14.93;3.30;;;;;;;;;;5064231;28;20116;-84
2023/10/05 08:50:22;;;;;;;14.00;3.25;;;;;;;;;;5060227;28;20043;-85
2023/10/05 13:13:25;;;;;;;11.98;2.92;;;;;;;;;;5035252;28;20118;-96
2023/10/05 13:15:54;;;;;;;11.05;2.35;;;;;;;;;;5023475;28;20141;-96
2023/10/05 13:18:25;;;;;;;11.88;2.50;;;;;;;;;;5034201;28;20080;-96
2023/10/05 13:20:53;;;;;;;15.82;3.13;;;;;;;;;;5028462;28;20132;-94
2023/10/05 13:23:21;;;;;;;11.35;2.70;;;;;;;;;;5012569;28;20056;-96
2023/10/05 13:25:48;;;;;;;11.30;2.63;;;;;;;;;;5015526;28;20107;-94
2023/10/05 13:28:21;;;;;;;11.40;2.70;;;;;;;;;;5001200;28;20041;-95
2023/10/05 13:30:47;;;;;;;10.75;3.10;;;;;;;;;;5013166;28;20107;-93
2023/10/05 13:33:28;;;;;;;15.95;3.20;;;;;;;;;;5025708;28;20100;-94
2023/10/05 13:35:54;;;;;;;;;;;;;;;;;;5011977;28;20069;-93
2023/10/05 13:38:36;;;;;;;11.20;3.00;;;;;;;;;;5015252;28;19971;-96
2023/10/05 13:43:32;;;;;;;13.23;2.95;;;;;;;;;;5024636;28;20057;-94
2023/10/05 13:46:04;;;;;;;13.90;3.08;;;;;;;;;;5022249;28;20058;-94
